createdAt,value
2022-08-05T00:01:27.849Z,100974.13
2022-08-05T00:03:54.317Z,100963.00
2022-08-05T00:06:30.676Z,100978.84
2022-08-05T00:08:59.495Z,100984.41
2022-08-05T00:11:30.628Z,100987.19
2022-08-05T00:14:02.174Z,100990.81
2022-08-05T00:16:35.692Z,100981.63
2022-08-05T00:19:03.081Z,100985.25
2022-08-05T00:21:30.686Z,100979.69
2022-08-05T00:24:10.938Z,100982.47
2022-08-05T00:26:36.905Z,100989.94
2022-08-05T00:29:02.546Z,100995.50
2022-08-05T00:31:53.400Z,100991.91
2022-08-05T00:34:56.931Z,100985.25
2022-08-05T00:37:11.169Z,100976.06
2022-08-05T00:39:44.212Z,100973.28
2022-08-05T00:42:32.486Z,100965.78
2022-08-05T00:44:59.397Z,100960.25
2022-08-05T00:47:25.102Z,100962.16
2022-08-05T00:49:51.769Z,100976.06
2022-08-05T00:52:19.003Z,100982.47
2022-08-05T00:54:54.518Z,100983.56
2022-08-05T00:57:22.000Z,100988.03
2022-08-05T00:59:51.390Z,100979.69
2022-08-05T01:02:17.096Z,100984.41
2022-08-05T01:04:42.750Z,100979.69
2022-08-05T01:07:13.822Z,100986.34
2022-08-05T01:09:40.992Z,100980.78
2022-08-05T01:12:17.901Z,100978.84
2022-08-05T01:14:49.448Z,100969.69
2022-08-05T01:17:26.560Z,100969.69
2022-08-05T01:20:02.369Z,100974.13
2022-08-05T01:23:14.277Z,100983.56
2022-08-05T01:26:03.644Z,100962.16
2022-08-05T01:29:09.065Z,100957.47
2022-08-05T01:31:44.569Z,100970.50
2022-08-05T01:34:15.425Z,100977.19
2022-08-05T01:36:47.581Z,100980.78
2022-08-05T01:39:14.924Z,100988.03
2022-08-05T01:42:01.146Z,100986.34
2022-08-05T01:44:34.227Z,101005.81
2022-08-05T01:47:01.676Z,101021.38
2022-08-05T01:50:01.781Z,101032.78
2022-08-05T01:52:19.142Z,101044.72
2022-08-05T01:54:49.126Z,101074.47
2022-08-05T01:58:09.846Z,101111.41
2022-08-05T02:00:12.074Z,101110.56
2022-08-05T02:02:46.537Z,101112.22
2022-08-05T02:05:20.074Z,101113.34
2022-08-05T02:08:00.412Z,101118.91
2022-08-05T02:10:31.967Z,101121.69
2022-08-05T02:13:05.129Z,101116.97
2022-08-05T02:15:53.626Z,101096.69
2022-08-05T02:18:31.562Z,101091.44
2022-08-05T02:21:05.822Z,101086.72
2022-08-05T02:23:41.905Z,101076.41
2022-08-05T02:26:09.849Z,101083.94
2022-08-05T02:28:41.473Z,101097.81
2022-08-05T02:31:14.818Z,101110.56
2022-08-05T02:33:44.641Z,101119.75
2022-08-05T02:36:13.574Z,101121.69
2022-08-05T02:38:45.119Z,101121.69
2022-08-05T02:41:20.645Z,101119.75
2022-08-05T02:44:06.732Z,101119.75
2022-08-05T02:46:35.853Z,101084.75
2022-08-05T02:49:11.154Z,101084.75
2022-08-05T02:52:03.094Z,101084.75
2022-08-05T02:54:36.019Z,101056.97
2022-08-05T02:57:05.120Z,101035.56
2022-08-05T02:59:50.188Z,100994.19
2022-08-05T03:02:18.924Z,100968.38
2022-08-05T03:04:47.163Z,100964.44
2022-08-05T03:07:59.449Z,100956.94
2022-08-05T03:10:05.290Z,100941.41
2022-08-05T03:12:33.794Z,100935.84
2022-08-05T03:14:59.541Z,100942.22
2022-08-05T03:17:25.935Z,100958.88
2022-08-05T03:19:52.968Z,100966.41
2022-08-05T03:22:18.890Z,100970.00
2022-08-05T03:24:58.009Z,100977.19
2022-08-05T03:27:59.676Z,100985.84
2022-08-05T03:30:30.225Z,101008.09
2022-08-05T03:33:01.673Z,101026.41
2022-08-05T03:35:28.001Z,101039.47
2022-08-05T03:37:56.995Z,101060.56
2022-08-05T03:40:32.289Z,101076.41
2022-08-05T03:42:58.883Z,101076.41
2022-08-05T03:45:26.932Z,101073.94
2022-08-05T03:47:57.139Z,101075.59
2022-08-05T03:50:26.204Z,101062.53
2022-08-05T03:55:54.022Z,101068.41
2022-08-05T03:56:10.169Z,101072.81
2022-08-05T03:58:37.218Z,101071.16
2022-08-05T04:01:08.448Z,101060.88
2022-08-05T04:03:39.433Z,101051.72
2022-08-05T04:06:05.848Z,101038.66
2022-08-05T04:08:36.678Z,101030.31
2022-08-05T04:11:03.040Z,101021.16
2022-08-05T04:13:49.825Z,101022.25
2022-08-05T04:16:15.283Z,101032.28
2022-08-05T04:18:54.194Z,101016.69
2022-08-05T04:22:09.301Z,101000.88
2022-08-05T04:24:09.021Z,100984.22
2022-08-05T04:26:34.974Z,100987.00
2022-08-05T04:29:00.761Z,101013.63
2022-08-05T04:31:38.363Z,101020.34
2022-08-05T04:34:31.270Z,101012.81
2022-08-05T04:36:50.539Z,101016.41
2022-08-05T04:39:17.379Z,101015.59
2022-08-05T04:41:44.339Z,101021.16
2022-08-05T04:44:11.340Z,101013.94
2022-08-05T04:46:37.659Z,101028.66
2022-08-05T04:49:04.625Z,101027.81
2022-08-05T04:51:37.872Z,101020.34
2022-08-05T04:54:03.725Z,101026.72
2022-08-05T04:56:35.191Z,101034.22
2022-08-05T04:59:21.722Z,101023.94
2022-08-05T05:02:07.853Z,101027.53
2022-08-05T05:04:34.833Z,101027.81
2022-08-05T05:07:03.848Z,101022.25
2022-08-05T05:09:29.477Z,101027.81
2022-08-05T05:12:01.728Z,101034.22
2022-08-05T05:14:31.979Z,101036.16
2022-08-05T05:16:58.873Z,101025.03
2022-08-05T05:19:27.534Z,101019.47
2022-08-05T05:22:06.265Z,101021.44
2022-08-05T05:24:58.859Z,101035.34
2022-08-05T05:27:44.818Z,101040.06
2022-08-05T05:30:15.498Z,101040.88
2022-08-05T05:32:54.797Z,101037.28
2022-08-05T05:35:21.938Z,101048.41
2022-08-05T05:37:59.528Z,101057.56
2022-08-05T05:40:28.177Z,101060.34
2022-08-05T05:42:54.382Z,101063.94
2022-08-05T05:45:20.197Z,101061.47
2022-08-05T05:48:06.333Z,101062.31
2022-08-05T05:50:32.549Z,101073.41
2022-08-05T05:52:59.737Z,101067.84
2022-08-05T05:55:25.398Z,101069.81
2022-08-05T05:58:10.985Z,101075.38
2022-08-05T06:00:36.623Z,101068.19
2022-08-05T06:03:02.482Z,101071.78
2022-08-05T06:05:28.190Z,101069.81
2022-08-05T06:08:01.779Z,101074.22
2022-08-05T06:10:29.583Z,101071.78
2022-08-05T06:13:03.002Z,101079.28
2022-08-05T06:16:30.074Z,101083.41
2022-08-05T06:18:14.279Z,101074.56
2022-08-05T06:20:41.018Z,101082.56
2022-08-05T06:23:13.452Z,101097.59
2022-08-05T06:26:12.269Z,101088.44
2022-08-05T06:28:28.500Z,101103.16
2022-08-05T06:30:54.237Z,101109.53
2022-08-05T06:33:21.415Z,101116.22
2022-08-05T06:36:09.672Z,101117.06
2022-08-05T06:38:37.140Z,101115.09
2022-08-05T06:41:04.048Z,101121.47
2022-08-05T06:43:58.092Z,101125.38
2022-08-05T06:46:15.865Z,101132.91
2022-08-05T06:48:54.618Z,101126.53
2022-08-05T06:51:29.315Z,101132.09
2022-08-05T06:53:57.245Z,101135.69
2022-08-05T06:56:26.241Z,101127.66
2022-08-05T06:58:52.462Z,101123.75
2022-08-05T07:01:21.034Z,101128.47
2022-08-05T07:03:46.889Z,101128.16
2022-08-05T07:06:15.068Z,101131.25
2022-08-05T07:08:42.485Z,101139.59
2022-08-05T07:11:15.301Z,101144.34
2022-08-05T07:14:01.274Z,101145.97
2022-08-05T07:18:02.350Z,101151.53
2022-08-05T07:22:21.856Z,101154.63
2022-08-05T07:24:55.066Z,101161.00
2022-08-05T07:27:22.139Z,101168.50
2022-08-05T07:30:27.578Z,101171.28
2022-08-05T07:32:39.052Z,101174.06
2022-08-05T07:35:56.649Z,101184.06
2022-08-05T07:37:53.522Z,101190.75
2022-08-05T07:40:32.383Z,101198.22
2022-08-05T07:42:58.994Z,101203.78
2022-08-05T07:45:56.394Z,101207.41
2022-08-05T07:48:11.124Z,101200.72
2022-08-05T07:50:38.958Z,101198.22
2022-08-05T07:53:05.041Z,101204.63
2022-08-05T07:55:44.201Z,101209.34
2022-08-05T07:58:57.544Z,101222.41
2022-08-05T08:01:06.127Z,101228.78
2022-08-05T08:03:44.920Z,101225.19
2022-08-05T08:06:10.753Z,101233.53
2022-08-05T08:08:36.567Z,101234.34
2022-08-05T08:11:03.084Z,101245.47
2022-08-05T08:13:42.979Z,101248.72
2022-08-05T08:16:50.287Z,101246.25
2022-08-05T08:19:06.211Z,101251.25
2022-08-05T08:21:32.107Z,101249.63
2022-08-05T08:24:03.270Z,101257.75
2022-08-05T08:26:31.003Z,101258.63
2022-08-05T08:28:59.830Z,101264.22
2022-08-05T08:31:32.949Z,101264.47
2022-08-05T08:33:58.674Z,101264.19
2022-08-05T08:36:38.939Z,101261.63
2022-08-05T08:39:15.563Z,101258.03
2022-08-05T08:41:52.479Z,101270.06
2022-08-05T08:45:24.865Z,101262.63
2022-08-05T08:47:21.757Z,101269.50
2022-08-05T08:50:22.689Z,101271.78
2022-08-05T08:52:36.833Z,101281.47
2022-08-05T08:55:03.869Z,101277.28
2022-08-05T08:57:42.355Z,101281.94
2022-08-05T09:00:23.757Z,101299.97
2022-08-05T09:02:53.488Z,101304.31
2022-08-05T09:05:19.653Z,101308.41
2022-08-05T09:08:04.742Z,101310.31
2022-08-05T09:10:30.516Z,101309.22
2022-08-05T09:12:57.195Z,101311.41
2022-08-05T09:15:30.541Z,101307.22
2022-08-05T09:17:56.171Z,101311.63
2022-08-05T09:20:37.605Z,101320.56
2022-08-05T09:23:08.944Z,101328.59
2022-08-05T09:26:01.504Z,101333.56
2022-08-05T09:28:23.496Z,101332.50
2022-08-05T09:31:22.199Z,101331.75
2022-08-05T09:33:59.046Z,101335.72
2022-08-05T09:36:45.785Z,101341.22
2022-08-05T09:39:23.671Z,101348.97
2022-08-05T09:42:07.800Z,101349.59
2022-08-05T09:44:39.628Z,101355.41
2022-08-05T09:47:10.377Z,101360.13
2022-08-05T09:49:54.568Z,101361.72
2022-08-05T09:52:27.337Z,101365.38
2022-08-05T09:54:58.878Z,101370.97
2022-08-05T09:57:28.852Z,101367.13
2022-08-05T10:00:10.569Z,101373.75
2022-08-05T10:02:38.838Z,101365.44
2022-08-05T10:05:07.961Z,101376.53
2022-08-05T10:08:11.248Z,101375.13
2022-08-05T10:13:45.853Z,101390.53
2022-08-05T10:16:37.965Z,101386.00
2022-08-05T10:19:18.269Z,101392.44
2022-08-05T10:21:49.767Z,101397.22
2022-08-05T10:24:17.849Z,101394.63
2022-08-05T10:26:51.983Z,101402.97
2022-08-05T10:29:24.147Z,101409.59
2022-08-05T10:32:54.589Z,101412.88
2022-08-05T10:34:52.740Z,101412.81
2022-08-05T10:37:18.431Z,101413.38
2022-08-05T10:39:58.931Z,101411.50
2022-08-05T10:45:20.932Z,101408.53
2022-08-05T10:47:56.435Z,101408.53
2022-08-05T10:50:56.509Z,101421.06
2022-08-05T10:56:26.061Z,101422.59
2022-08-05T11:01:54.964Z,101423.31
2022-08-05T11:04:31.010Z,101416.09
2022-08-05T11:09:46.158Z,101427.72
2022-08-05T11:12:37.315Z,101435.78
2022-08-05T11:18:07.685Z,101443.56
2022-08-05T11:20:43.921Z,101436.97
2022-08-05T11:24:03.912Z,101427.78
2022-08-05T11:26:35.416Z,101434.72
2022-08-05T11:29:06.794Z,101434.97
2022-08-05T11:31:58.907Z,101432.19
2022-08-05T11:34:52.063Z,101433.38
2022-08-05T11:40:19.106Z,101437.53
2022-08-05T11:42:48.538Z,101436.09
2022-08-05T11:46:14.639Z,101442.47
2022-08-05T11:47:59.777Z,101449.72
2022-08-05T11:50:26.728Z,101440.84
2022-08-05T11:52:57.566Z,101437.81
2022-08-05T11:55:23.990Z,101445.25
2022-08-05T11:58:09.298Z,101438.84
2022-08-05T12:00:38.012Z,101438.56
2022-08-05T12:03:29.681Z,101447.72
2022-08-05T12:06:00.608Z,101439.38
2022-08-05T12:08:26.637Z,101442.44
2022-08-05T12:10:52.974Z,101445.22
2022-08-05T12:13:48.109Z,101445.75
2022-08-05T12:16:14.407Z,101447.41
2022-08-05T12:18:40.862Z,101442.97
2022-08-05T12:21:10.105Z,101453.78
2022-08-05T12:23:35.981Z,101449.06
2022-08-05T12:26:08.969Z,101451.84
2022-08-05T12:28:37.030Z,101462.16
2022-08-05T12:31:03.705Z,101457.75
2022-08-05T12:33:36.671Z,101450.25
2022-08-05T12:36:08.109Z,101452.50
2022-08-05T12:38:36.256Z,101458.25
2022-08-05T12:41:02.684Z,101458.25
2022-08-05T12:43:32.054Z,101467.41
2022-08-05T12:45:58.037Z,101470.81
2022-08-05T12:48:27.743Z,101462.72
2022-08-05T12:52:10.004Z,101467.78
2022-08-05T12:54:04.911Z,101469.78
2022-08-05T12:56:45.853Z,101475.28
2022-08-05T12:59:27.645Z,101486.91
2022-08-05T13:02:09.794Z,101492.72
2022-08-05T13:04:41.802Z,101494.66
2022-08-05T13:07:41.340Z,101501.88
2022-08-05T13:10:10.740Z,101506.28
2022-08-05T13:12:51.322Z,101515.47
2022-08-05T13:15:35.979Z,101523.50
2022-08-05T13:18:07.459Z,101526.03
2022-08-05T13:20:34.364Z,101539.91
2022-08-05T13:22:59.981Z,101549.06
2022-08-05T13:25:51.652Z,101538.25
2022-08-05T13:28:12.032Z,101536.00
2022-08-05T13:30:39.950Z,101539.00
2022-08-05T13:33:05.697Z,101544.28
2022-08-05T13:35:47.053Z,101540.38
2022-08-05T13:38:28.203Z,101541.50
2022-08-05T13:40:57.969Z,101542.84
2022-08-05T13:43:23.817Z,101553.69
2022-08-05T13:46:11.492Z,101554.50
2022-08-05T13:48:58.834Z,101556.16
2022-08-05T13:51:28.757Z,101558.94
2022-08-05T13:53:57.866Z,101564.50
2022-08-05T13:56:24.195Z,101565.31
2022-08-05T13:58:53.061Z,101562.53
2022-08-05T14:01:19.575Z,101567.78
2022-08-05T14:04:13.098Z,101564.19
2022-08-05T14:06:38.754Z,101566.97
2022-08-05T14:09:08.636Z,101566.69
2022-08-05T14:12:04.229Z,101565.00
2022-08-05T14:14:25.537Z,101557.53
2022-08-05T14:16:55.455Z,101567.56
2022-08-05T14:19:23.216Z,101560.03
2022-08-05T14:22:09.998Z,101560.88
2022-08-05T14:24:35.007Z,101564.78
2022-08-05T14:27:17.808Z,101574.75
2022-08-05T14:29:44.365Z,101569.19
2022-08-05T14:32:27.115Z,101573.09
2022-08-05T14:34:53.703Z,101564.47
2022-08-05T14:37:23.221Z,101568.91
2022-08-05T14:40:09.526Z,101577.22
2022-08-05T14:42:40.416Z,101569.19
2022-08-05T14:45:06.665Z,101566.97
2022-08-05T14:48:03.881Z,101564.19
2022-08-05T14:50:20.268Z,101556.97
2022-08-05T14:52:57.632Z,101554.19
2022-08-05T14:55:24.883Z,101561.41
2022-08-05T14:57:54.830Z,101568.91
2022-08-05T15:00:27.872Z,101561.41
2022-08-05T15:02:54.139Z,101556.69
2022-08-05T15:05:19.869Z,101569.75
2022-08-05T15:08:11.180Z,101561.41
2022-08-05T15:10:31.641Z,101564.19
2022-08-05T15:13:03.736Z,101570.28
2022-08-05T15:15:53.831Z,101566.69
2022-08-05T15:18:17.314Z,101570.28
2022-08-05T15:20:43.118Z,101567.50
2022-08-05T15:23:10.310Z,101575.84
2022-08-05T15:25:51.219Z,101579.75
2022-08-05T15:28:19.925Z,101580.56
2022-08-05T15:30:52.911Z,101576.97
2022-08-05T15:34:04.564Z,101581.38
2022-08-05T15:36:05.209Z,101582.22
2022-08-05T15:38:48.015Z,101583.03
2022-08-05T15:41:22.624Z,101579.44
2022-08-05T15:43:49.370Z,101581.09
2022-08-05T15:46:15.343Z,101583.03
2022-08-05T15:48:52.821Z,101578.31
2022-08-05T15:52:13.878Z,101583.03
2022-08-05T15:54:15.289Z,101586.66
2022-08-05T15:56:41.453Z,101582.78
2022-08-05T15:59:07.086Z,101583.88
2022-08-05T16:01:39.904Z,101583.03
2022-08-05T16:04:18.390Z,101587.47
2022-08-05T16:06:44.035Z,101589.16
2022-08-05T16:09:09.831Z,101587.47
2022-08-05T16:11:42.308Z,101596.66
2022-08-05T16:14:09.152Z,101606.09
2022-08-05T16:16:35.385Z,101594.97
2022-08-05T16:19:01.056Z,101605.00
2022-08-05T16:21:58.645Z,101609.69
2022-08-05T16:24:12.916Z,101607.78
2022-08-05T16:26:59.690Z,101607.78
2022-08-05T16:29:26.545Z,101610.53
2022-08-05T16:31:56.956Z,101618.88
2022-08-05T16:34:26.612Z,101616.09
2022-08-05T16:36:52.974Z,101627.22
2022-08-05T16:39:20.794Z,101628.03
2022-08-05T16:42:15.769Z,101631.66
2022-08-05T16:44:32.146Z,101641.94
2022-08-05T16:46:58.405Z,101650.25
2022-08-05T16:49:25.665Z,101647.47
2022-08-05T16:51:56.854Z,101648.31
2022-08-05T16:54:30.243Z,101648.31
2022-08-05T16:56:58.891Z,101651.91
2022-08-05T16:59:27.753Z,101642.75
2022-08-05T17:01:56.524Z,101651.09
2022-08-05T17:04:26.707Z,101653.88
2022-08-05T17:06:54.395Z,101655.81
2022-08-05T17:09:20.358Z,101656.63
2022-08-05T17:11:48.656Z,101660.25
2022-08-05T17:14:34.275Z,101664.97
2022-08-05T17:17:00.873Z,101671.34
2022-08-05T17:19:28.309Z,101673.31
2022-08-05T17:21:53.932Z,101674.97
2022-08-05T17:24:35.062Z,101677.75
2022-08-05T17:27:04.681Z,101676.91
2022-08-05T17:29:33.163Z,101688.03
2022-08-05T17:32:00.008Z,101688.03
2022-08-05T17:34:29.756Z,101683.28
2022-08-05T17:36:57.576Z,101689.69
2022-08-05T17:39:33.218Z,101688.84
2022-08-05T17:42:18.901Z,101697.19
2022-08-05T17:44:50.271Z,101698.00
2022-08-05T17:47:18.609Z,101703.56
2022-08-05T17:49:51.659Z,101707.47
2022-08-05T17:52:29.071Z,101708.28
2022-08-05T17:54:54.734Z,101699.97
2022-08-05T17:57:21.104Z,101707.47
2022-08-05T18:00:03.092Z,101714.69
2022-08-05T18:02:29.568Z,101716.63
2022-08-05T18:04:55.337Z,101723.00
2022-08-05T18:07:21.014Z,101724.97
2022-08-05T18:10:00.447Z,101733.28
2022-08-05T18:12:26.635Z,101737.72
2022-08-05T18:14:54.206Z,101736.91
2022-08-05T18:17:59.133Z,101740.50
2022-08-05T18:20:06.725Z,101743.28
2022-08-05T18:22:54.087Z,101750.78
2022-08-05T18:25:20.656Z,101754.41
2022-08-05T18:27:51.965Z,101767.19
2022-08-05T18:30:18.462Z,101774.66
2022-08-05T18:32:53.577Z,101775.53
2022-08-05T18:35:49.361Z,101773.84
2022-08-05T18:38:11.349Z,101780.22
2022-08-05T18:41:57.226Z,101780.22
2022-08-05T18:43:23.154Z,101781.09
2022-08-05T18:45:48.887Z,101788.56
2022-08-05T18:48:30.708Z,101798.56
2022-08-05T18:52:04.399Z,101794.13
2022-08-05T18:54:04.719Z,101792.19
2022-08-05T18:56:30.360Z,101801.34
2022-08-05T18:59:01.000Z,101804.97
2022-08-05T19:01:47.630Z,101806.91
2022-08-05T19:04:13.484Z,101811.63
2022-08-05T19:06:49.833Z,101818.03
2022-08-05T19:09:15.453Z,101821.63
2022-08-05T19:11:59.139Z,101826.34
2022-08-05T19:14:59.217Z,101824.69
2022-08-05T19:17:11.953Z,101838.31
2022-08-05T19:19:46.412Z,101832.75
2022-08-05T19:22:12.422Z,101832.75
2022-08-05T19:24:54.298Z,101844.69
2022-08-05T19:27:22.490Z,101838.31
2022-08-05T19:29:49.094Z,101844.69
2022-08-05T19:32:15.210Z,101850.25
2022-08-05T19:34:41.975Z,101845.81
2022-08-05T19:37:20.069Z,101855.78
2022-08-05T19:39:51.063Z,101859.41
2022-08-05T19:42:18.065Z,101866.91
2022-08-05T19:44:45.030Z,101875.25
2022-08-05T19:47:12.287Z,101878.03
2022-08-05T19:49:41.799Z,101880.78
2022-08-05T19:52:30.936Z,101887.19
2022-08-05T19:54:53.632Z,101901.91
2022-08-05T19:57:19.532Z,101899.94
2022-08-05T20:00:05.980Z,101901.06
2022-08-05T20:02:32.841Z,101901.06
2022-08-05T20:04:59.657Z,101911.06
2022-08-05T20:07:45.724Z,101918.56
2022-08-05T20:10:13.801Z,101926.06
2022-08-05T20:12:46.003Z,101921.34
2022-08-05T20:15:14.954Z,101928.03
2022-08-05T20:17:49.136Z,101929.69
2022-08-05T20:20:16.193Z,101931.63
2022-08-05T20:22:41.836Z,101937.19
2022-08-05T20:25:09.837Z,101948.31
2022-08-05T20:27:41.798Z,101943.56
2022-08-05T20:30:09.357Z,101953.84
2022-08-05T20:32:35.915Z,101949.13
2022-08-05T20:35:01.831Z,101960.25
2022-08-05T20:38:06.172Z,101965.81
2022-08-05T20:40:13.732Z,101963.84
2022-08-05T20:42:39.471Z,101966.63
2022-08-05T20:45:05.556Z,101966.63
2022-08-05T20:47:32.063Z,101974.13
2022-08-05T20:49:58.481Z,101977.75
2022-08-05T20:52:24.891Z,101981.34
2022-08-05T20:54:59.866Z,101973.00
2022-08-05T20:57:43.543Z,101975.25
2022-08-05T21:00:40.987Z,101981.34
2022-08-05T21:03:03.715Z,101986.06
2022-08-05T21:05:48.414Z,101981.34
2022-08-05T21:08:18.361Z,101996.38
2022-08-05T21:10:48.945Z,101997.19
2022-08-05T21:13:26.111Z,101994.41
2022-08-05T21:16:00.454Z,102000.81
2022-08-05T21:18:27.058Z,102002.75
2022-08-05T21:20:54.495Z,102004.41
2022-08-05T21:23:21.605Z,102007.19
2022-08-05T21:25:48.179Z,102000.81
2022-08-05T21:28:14.144Z,102000.81
2022-08-05T21:30:44.392Z,102005.25
2022-08-05T21:33:22.117Z,102007.19
2022-08-05T21:35:58.561Z,102007.19
2022-08-05T21:38:25.463Z,102016.38
2022-08-05T21:40:51.112Z,102018.28
2022-08-05T21:43:24.449Z,102013.59
2022-08-05T21:45:56.291Z,102022.19
2022-08-05T21:48:23.321Z,102021.06
2022-08-05T21:50:54.040Z,102021.06
2022-08-05T21:53:20.051Z,102020.25
2022-08-05T21:56:05.263Z,102033.06
2022-08-05T21:58:32.103Z,102026.63
2022-08-05T22:00:57.950Z,102026.63
2022-08-05T22:03:51.735Z,102033.06
2022-08-05T22:06:09.255Z,102032.19
2022-08-05T22:08:34.875Z,102034.97
2022-08-05T22:11:00.498Z,102040.53
2022-08-05T22:14:34.176Z,102044.16
2022-08-05T22:16:39.565Z,102043.31
2022-08-05T22:18:58.694Z,102038.59
2022-08-05T22:21:24.543Z,102050.53
2022-08-05T22:24:13.231Z,102050.53
2022-08-05T22:27:17.401Z,102055.28
2022-08-05T22:29:43.238Z,102049.72
2022-08-05T22:32:10.079Z,102058.06
2022-08-05T22:34:35.875Z,102058.88
2022-08-05T22:37:03.965Z,102062.75
2022-08-05T22:39:33.704Z,102058.88
2022-08-05T22:42:10.916Z,102052.50
2022-08-05T22:44:38.569Z,102064.44
2022-08-05T22:47:05.766Z,102057.19
2022-08-05T22:50:18.084Z,102059.97
2022-08-05T22:52:30.192Z,102070.00
2022-08-05T22:54:58.366Z,102071.94
2022-08-05T22:57:24.010Z,102072.78
2022-08-05T22:59:53.578Z,102071.94
2022-08-05T23:02:28.859Z,102077.50
2022-08-05T23:04:55.734Z,102082.19
2022-08-05T23:07:21.930Z,102083.06
2022-08-05T23:09:57.759Z,102084.72
2022-08-05T23:12:28.669Z,102085.84
2022-08-05T23:14:54.591Z,102089.44
2022-08-05T23:17:23.994Z,102083.06
2022-08-05T23:19:56.378Z,102090.28
2022-08-05T23:22:27.175Z,102097.78
2022-08-05T23:24:53.559Z,102096.94
2022-08-05T23:27:19.877Z,102097.78
2022-08-05T23:29:48.481Z,102106.13
2022-08-05T23:32:16.255Z,102115.28
2022-08-05T23:34:48.853Z,102113.63
2022-08-05T23:37:14.486Z,102112.75
2022-08-05T23:39:53.525Z,102115.28
2022-08-05T23:42:23.450Z,102122.78
2022-08-05T23:44:55.341Z,102123.63
2022-08-05T23:47:21.013Z,102126.41
2022-08-05T23:49:50.870Z,102120.00
2022-08-05T23:52:36.190Z,102131.97
2022-08-05T23:55:15.836Z,102137.50
2022-08-05T23:57:43.034Z,102142.25
